createdAt,value
2023-03-25T00:02:07.599Z,8.64
2023-03-25T00:07:32.566Z,8.59
2023-03-25T00:12:59.543Z,8.53
2023-03-25T00:18:27.549Z,8.57
2023-03-25T00:23:52.554Z,8.45
2023-03-25T00:29:26.572Z,8.39
2023-03-25T00:34:53.587Z,8.39
2023-03-25T00:40:18.636Z,8.36
2023-03-25T00:45:46.555Z,8.33
2023-03-25T00:51:20.599Z,8.37
2023-03-25T00:56:45.613Z,8.43
2023-03-25T01:02:13.595Z,8.42
2023-03-25T01:07:38.558Z,8.47
2023-03-25T01:13:03.620Z,8.49
2023-03-25T01:18:30.596Z,8.47
2023-03-25T01:23:55.604Z,8.41
2023-03-25T01:29:19.598Z,8.37
2023-03-25T01:34:49.605Z,8.41
2023-03-25T01:40:16.603Z,8.37
2023-03-25T01:45:42.583Z,8.37
2023-03-25T01:51:22.588Z,8.35
2023-03-25T01:56:53.679Z,8.37
2023-03-25T02:02:22.622Z,8.37
2023-03-25T02:07:54.671Z,8.33
2023-03-25T02:13:21.643Z,8.36
2023-03-25T02:18:58.601Z,8.47
2023-03-25T02:25:00.629Z,8.52
2023-03-25T02:30:40.658Z,8.54
2023-03-25T02:36:36.627Z,8.60
2023-03-25T02:42:11.642Z,8.64
2023-03-25T02:47:39.685Z,8.77
2023-03-25T02:53:17.629Z,8.84
2023-03-25T02:58:45.640Z,8.89
2023-03-25T03:04:10.638Z,8.88
2023-03-25T03:09:45.621Z,8.88
2023-03-25T03:15:24.660Z,8.91
2023-03-25T03:20:59.682Z,8.93
2023-03-25T03:26:29.668Z,8.93
2023-03-25T03:32:06.428Z,8.93
2023-03-25T03:37:36.651Z,8.97
2023-03-25T03:43:06.667Z,8.96
2023-03-25T03:48:39.655Z,8.95
2023-03-25T03:54:14.681Z,8.97
2023-03-25T03:59:49.687Z,8.99
2023-03-25T04:05:17.677Z,8.91
2023-03-25T04:10:49.733Z,8.74
2023-03-25T04:16:15.686Z,8.60
2023-03-25T04:21:43.664Z,8.47
2023-03-25T04:27:10.673Z,8.36
2023-03-25T04:32:37.730Z,8.36
2023-03-25T04:38:04.702Z,8.41
2023-03-25T04:43:29.693Z,8.41
2023-03-25T04:48:54.702Z,8.25
2023-03-25T04:54:22.702Z,8.29
2023-03-25T04:59:46.742Z,8.15
2023-03-25T05:05:11.711Z,8.01
2023-03-25T05:10:41.698Z,7.94
2023-03-25T05:16:06.728Z,7.94
2023-03-25T05:21:30.770Z,7.90
2023-03-25T05:26:51.719Z,7.72
2023-03-25T05:32:16.726Z,7.67
2023-03-25T05:37:40.725Z,7.65
2023-03-25T05:43:09.864Z,7.68
2023-03-25T05:48:33.729Z,7.72
2023-03-25T05:54:04.688Z,7.73
2023-03-25T05:59:32.726Z,7.74
2023-03-25T06:04:57.749Z,7.72
2023-03-25T06:10:24.751Z,7.64
2023-03-25T06:15:52.050Z,7.63
2023-03-25T06:21:17.741Z,7.59
2023-03-25T06:26:44.729Z,7.55
2023-03-25T06:32:12.737Z,7.49
2023-03-25T06:37:36.786Z,7.35
2023-03-25T06:43:08.750Z,7.34
2023-03-25T06:49:08.886Z,7.18
2023-03-25T06:54:33.790Z,7.15
2023-03-25T06:59:57.787Z,7.09
2023-03-25T07:05:25.843Z,7.02
2023-03-25T07:10:49.743Z,6.97
2023-03-25T07:16:15.809Z,6.98
2023-03-25T07:21:42.775Z,6.96
2023-03-25T07:27:07.778Z,6.99
2023-03-25T07:32:36.824Z,6.94
2023-03-25T07:38:04.754Z,7.02
2023-03-25T07:43:28.787Z,7.03
2023-03-25T07:49:09.775Z,7.03
2023-03-25T07:54:44.775Z,7.16
2023-03-25T08:00:11.807Z,7.32
2023-03-25T08:05:36.901Z,7.57
2023-03-25T08:11:04.805Z,7.84
2023-03-25T08:16:30.863Z,8.09
2023-03-25T08:21:55.803Z,8.30
2023-03-25T08:27:22.848Z,8.40
2023-03-25T08:32:47.891Z,8.40
2023-03-25T08:38:13.793Z,8.44
2023-03-25T08:43:43.094Z,8.40
2023-03-25T08:49:08.784Z,8.23
2023-03-25T08:54:39.798Z,8.36
2023-03-25T09:00:07.803Z,8.53
2023-03-25T09:05:33.921Z,8.46
2023-03-25T09:10:58.805Z,8.32
2023-03-25T09:16:25.863Z,8.40
2023-03-25T09:21:50.835Z,8.75
2023-03-25T09:27:14.811Z,9.02
2023-03-25T09:32:42.830Z,9.23
2023-03-25T09:38:06.839Z,9.52
2023-03-25T09:43:44.828Z,9.69
2023-03-25T09:49:12.889Z,9.84
2023-03-25T09:54:47.831Z,10.01
2023-03-25T10:00:15.843Z,9.85
2023-03-25T10:06:04.832Z,9.80
2023-03-25T10:11:39.881Z,9.90
2023-03-25T10:17:17.868Z,10.09
2023-03-25T10:22:53.861Z,9.97
2023-03-25T10:28:20.853Z,10.40
2023-03-25T10:33:49.835Z,10.61
2023-03-25T10:39:19.865Z,10.78
2023-03-25T10:44:44.879Z,10.54
2023-03-25T10:50:10.863Z,10.50
2023-03-25T10:55:44.892Z,10.51
2023-03-25T11:01:09.936Z,10.72
2023-03-25T11:06:38.859Z,10.72
2023-03-25T11:12:05.860Z,10.83
2023-03-25T11:17:32.949Z,10.91
2023-03-25T11:23:03.890Z,11.12
2023-03-25T11:28:42.901Z,10.98
2023-03-25T11:34:20.918Z,10.92
2023-03-25T11:39:48.925Z,10.88
2023-03-25T11:45:17.901Z,11.06
2023-03-25T11:50:44.876Z,10.95
2023-03-25T11:56:12.887Z,10.99
2023-03-25T12:01:50.928Z,11.02
2023-03-25T12:07:18.018Z,10.90
2023-03-25T12:12:51.937Z,11.20
2023-03-25T12:18:34.525Z,11.39
2023-03-25T12:24:11.935Z,11.61
2023-03-25T12:29:45.915Z,11.26
2023-03-25T12:35:29.945Z,9.20
2023-03-25T12:41:07.953Z,7.24
2023-03-25T12:46:50.930Z,6.82
2023-03-25T12:52:25.961Z,6.69
2023-03-25T12:58:02.945Z,6.73
2023-03-25T13:04:03.957Z,6.84
2023-03-25T13:09:35.972Z,6.89
2023-03-25T13:15:07.935Z,6.98
2023-03-25T13:20:34.967Z,7.05
2023-03-25T13:26:05.944Z,7.26
2023-03-25T13:31:35.985Z,7.66
2023-03-25T13:37:12.949Z,8.01
2023-03-25T13:42:48.956Z,8.18
2023-03-25T13:48:21.957Z,8.55
2023-03-25T13:54:00.035Z,8.80
2023-03-25T14:00:02.983Z,8.93
2023-03-25T14:06:06.983Z,9.10
2023-03-25T14:11:36.982Z,9.16
2023-03-25T14:17:05.978Z,9.68
2023-03-25T14:22:38.975Z,10.17
2023-03-25T14:28:05.968Z,10.32
2023-03-25T14:33:30.995Z,10.21
2023-03-25T14:39:13.993Z,10.15
2023-03-25T14:44:41.333Z,10.89
2023-03-25T14:50:10.047Z,10.74
2023-03-25T14:55:47.987Z,10.73
2023-03-25T15:01:19.061Z,10.77
2023-03-25T15:06:50.009Z,10.63
2023-03-25T15:12:25.007Z,10.91
2023-03-25T15:18:00.656Z,11.09
2023-03-25T15:23:43.013Z,11.01
2023-03-25T15:29:38.009Z,11.41
2023-03-25T15:35:22.028Z,11.54
2023-03-25T15:40:51.183Z,11.38
2023-03-25T15:46:38.047Z,11.30
2023-03-25T15:52:20.800Z,11.23
2023-03-25T15:57:52.155Z,11.17
2023-03-25T16:03:28.104Z,11.03
2023-03-25T16:08:59.051Z,10.90
2023-03-25T16:14:28.028Z,10.89
2023-03-25T16:20:00.106Z,10.83
2023-03-25T16:25:30.032Z,10.63
2023-03-25T16:31:01.041Z,10.44
2023-03-25T16:36:33.046Z,10.33
2023-03-25T16:42:00.047Z,10.29
2023-03-25T16:47:28.066Z,10.30
2023-03-25T16:53:09.051Z,10.44
2023-03-25T16:58:36.101Z,10.22
2023-03-25T17:04:03.024Z,10.12
2023-03-25T17:09:33.087Z,9.90
2023-03-25T17:15:00.074Z,9.76
2023-03-25T17:20:28.069Z,9.55
2023-03-25T17:26:07.552Z,9.48
2023-03-25T17:31:40.136Z,9.33
2023-03-25T17:37:15.109Z,9.17
2023-03-25T17:42:45.077Z,9.14
2023-03-25T17:48:09.059Z,9.13
2023-03-25T17:53:41.081Z,9.03
2023-03-25T17:59:11.095Z,9.01
2023-03-25T18:04:36.074Z,8.97
2023-03-25T18:10:01.423Z,9.00
2023-03-25T18:15:28.130Z,9.08
2023-03-25T18:20:57.125Z,8.81
2023-03-25T18:26:27.156Z,8.09
2023-03-25T18:31:55.189Z,7.62
2023-03-25T18:37:19.094Z,7.41
2023-03-25T18:42:44.089Z,7.29
2023-03-25T18:48:11.082Z,7.22
2023-03-25T18:53:44.122Z,7.14
2023-03-25T18:59:09.200Z,7.13
2023-03-25T19:04:42.791Z,7.04
2023-03-25T19:10:12.137Z,6.99
2023-03-25T19:15:39.137Z,7.01
2023-03-25T19:21:07.234Z,7.12
2023-03-25T19:26:32.100Z,7.11
2023-03-25T19:31:57.136Z,7.04
2023-03-25T19:37:24.117Z,7.03
2023-03-25T19:42:49.207Z,7.04
2023-03-25T19:48:13.132Z,7.11
2023-03-25T19:53:47.112Z,7.14
2023-03-25T19:59:12.155Z,7.27
2023-03-25T20:04:36.152Z,7.33
2023-03-25T20:10:17.105Z,7.42
2023-03-25T20:15:44.225Z,7.48
2023-03-25T20:21:09.233Z,7.56
2023-03-25T20:26:36.132Z,7.58
2023-03-25T20:32:03.326Z,7.55
2023-03-25T20:37:28.176Z,7.58
2023-03-25T20:42:57.188Z,7.43
2023-03-25T20:48:22.189Z,7.56
2023-03-25T20:53:54.158Z,7.59
2023-03-25T20:59:28.196Z,7.71
2023-03-25T21:04:53.180Z,7.66
2023-03-25T21:10:19.190Z,7.56
2023-03-25T21:15:50.231Z,7.41
2023-03-25T21:21:16.949Z,7.31
2023-03-25T21:26:43.192Z,7.27
2023-03-25T21:32:10.244Z,7.18
2023-03-25T21:37:36.191Z,7.14
2023-03-25T21:43:01.199Z,7.11
2023-03-25T21:48:30.176Z,7.18
2023-03-25T21:54:05.187Z,7.14
2023-03-25T21:59:31.215Z,7.01
2023-03-25T22:04:58.211Z,6.93
2023-03-25T22:10:23.254Z,6.77
2023-03-25T22:15:47.173Z,6.73
2023-03-25T22:21:20.188Z,6.82
2023-03-25T22:26:49.190Z,6.88
2023-03-25T22:32:15.230Z,6.88
2023-03-25T22:37:43.227Z,7.01
2023-03-25T22:43:08.206Z,7.11
2023-03-25T22:48:33.303Z,7.14
2023-03-25T22:54:08.198Z,7.22
2023-03-25T22:59:33.216Z,7.25
2023-03-25T23:04:57.230Z,7.27
2023-03-25T23:10:25.248Z,7.23
2023-03-25T23:15:49.290Z,7.14
2023-03-25T23:21:15.341Z,7.05
2023-03-25T23:26:45.244Z,7.06
2023-03-25T23:32:10.259Z,7.01
2023-03-25T23:37:35.250Z,6.94
2023-03-25T23:43:03.281Z,6.93
2023-03-25T23:48:29.256Z,6.85
2023-03-25T23:54:02.260Z,6.76
2023-03-25T23:59:30.241Z,6.75
